createdAt,value
2018-07-20T00:00:04.539Z,60.57
2018-07-20T00:01:04.505Z,60.53
2018-07-20T00:02:04.551Z,61.04
2018-07-20T00:03:04.499Z,60.67
2018-07-20T00:04:04.472Z,60.47
2018-07-20T00:05:04.459Z,60.67
2018-07-20T00:06:04.448Z,60.67
2018-07-20T00:07:04.631Z,60.06
2018-07-20T00:08:04.445Z,60.77
2018-07-20T00:09:04.430Z,60.57
2018-07-20T00:10:04.407Z,61.07
2018-07-20T00:11:04.402Z,60.97
2018-07-20T00:12:04.410Z,60.97
2018-07-20T00:13:04.422Z,61.07
2018-07-20T00:14:04.367Z,60.97
2018-07-20T00:15:04.386Z,61.17
2018-07-20T00:16:04.340Z,60.57
2018-07-20T00:17:04.334Z,60.47
2018-07-20T00:18:04.332Z,60.27
2018-07-20T00:19:04.341Z,60.77
2018-07-20T00:20:04.318Z,60.87
2018-07-20T00:21:04.331Z,60.77
2018-07-20T00:22:04.353Z,60.57
2018-07-20T00:23:04.266Z,60.57
2018-07-20T00:24:04.285Z,60.77
2018-07-20T00:25:04.244Z,60.80
2018-07-20T00:26:05.152Z,60.57
2018-07-20T00:27:04.221Z,60.60
2018-07-20T00:28:04.209Z,60.67
2018-07-20T00:29:04.243Z,60.36
2018-07-20T00:30:04.195Z,60.47
2018-07-20T00:31:04.187Z,60.87
2018-07-20T00:32:04.182Z,60.57
2018-07-20T00:33:04.158Z,61.07
2018-07-20T00:34:04.160Z,60.47
2018-07-20T00:35:04.179Z,60.67
2018-07-20T00:36:04.230Z,60.06
2018-07-20T00:37:04.113Z,59.86
2018-07-20T00:38:04.107Z,59.96
2018-07-20T00:39:04.145Z,60.47
2018-07-20T00:40:04.082Z,60.67
2018-07-20T00:41:04.093Z,60.57
2018-07-20T00:42:04.065Z,60.47
2018-07-20T00:43:04.051Z,60.57
2018-07-20T00:44:04.042Z,60.47
2018-07-20T00:45:04.084Z,60.57
2018-07-20T00:46:04.014Z,60.57
2018-07-20T00:47:04.005Z,60.87
2018-07-20T00:48:04.668Z,60.06
2018-07-20T00:49:03.988Z,59.86
2018-07-20T00:50:03.975Z,60.36
2018-07-20T00:51:03.997Z,60.77
2018-07-20T00:52:03.952Z,60.67
2018-07-20T00:53:03.939Z,60.80
2018-07-20T00:54:03.939Z,61.37
2018-07-20T00:55:03.936Z,61.27
2018-07-20T00:56:03.963Z,61.27
2018-07-20T00:57:03.900Z,60.67
2018-07-20T00:58:03.889Z,61.07
2018-07-20T00:59:03.879Z,61.27
2018-07-20T01:00:03.864Z,61.60
2018-07-20T01:01:03.890Z,61.60
2018-07-20T01:02:03.860Z,61.17
2018-07-20T01:03:03.840Z,60.97
2018-07-20T01:04:03.844Z,61.20
2018-07-20T01:05:03.818Z,61.20
2018-07-20T01:06:03.851Z,61.10
2018-07-20T01:07:03.816Z,61.30
2018-07-20T01:08:03.775Z,61.60
2018-07-20T01:09:03.796Z,60.89
2018-07-20T01:10:03.756Z,62.01
2018-07-20T01:11:03.793Z,61.60
2018-07-20T01:12:03.739Z,61.80
2018-07-20T01:13:03.747Z,62.01
2018-07-20T01:14:03.774Z,62.10
2018-07-20T01:15:03.722Z,62.41
2018-07-20T01:16:03.704Z,62.61
2018-07-20T01:17:03.737Z,62.91
2018-07-20T01:18:03.668Z,62.68
2018-07-20T01:19:03.666Z,63.01
2018-07-20T01:20:03.652Z,63.01
2018-07-20T01:21:03.663Z,62.91
2018-07-20T01:22:03.685Z,63.51
2018-07-20T01:23:03.615Z,64.22
2018-07-20T01:24:03.616Z,64.55
2018-07-20T01:25:03.603Z,64.52
2018-07-20T01:26:06.617Z,64.55
2018-07-20T01:27:03.611Z,64.65
2018-07-20T01:28:03.602Z,64.95
2018-07-20T01:29:03.548Z,64.95
2018-07-20T01:30:03.548Z,65.46
2018-07-20T01:31:03.563Z,65.96
2018-07-20T01:32:03.526Z,65.59
2018-07-20T01:33:03.739Z,65.69
2018-07-20T01:34:03.503Z,65.89
2018-07-20T01:35:03.491Z,65.69
2018-07-20T01:36:03.489Z,65.89
2018-07-20T01:37:03.469Z,65.69
2018-07-20T01:38:03.506Z,65.82
2018-07-20T01:39:03.443Z,66.02
2018-07-20T01:40:03.440Z,66.22
2018-07-20T01:41:03.423Z,66.13
2018-07-20T01:42:03.414Z,66.36
2018-07-20T01:43:03.410Z,66.13
2018-07-20T01:44:03.429Z,66.76
2018-07-20T01:45:03.391Z,66.56
2018-07-20T01:46:03.383Z,66.66
2018-07-20T01:47:03.387Z,66.76
2018-07-20T01:48:03.345Z,66.86
2018-07-20T01:49:03.383Z,67.16
2018-07-20T01:50:03.377Z,67.19
2018-07-20T01:51:03.319Z,67.10
2018-07-20T01:52:03.316Z,67.40
2018-07-20T01:53:03.293Z,66.99
2018-07-20T01:54:03.283Z,66.99
2018-07-20T01:55:03.310Z,66.89
2018-07-20T01:56:03.257Z,66.96
2018-07-20T01:57:03.255Z,67.19
2018-07-20T01:58:03.237Z,66.99
2018-07-20T01:59:03.238Z,67.10
2018-07-20T02:00:03.289Z,67.40
2018-07-20T02:01:03.206Z,67.19
2018-07-20T02:02:03.196Z,67.40
2018-07-20T02:03:03.187Z,67.40
2018-07-20T02:04:03.172Z,67.80
2018-07-20T02:05:03.178Z,67.90
2018-07-20T02:06:03.184Z,67.63
2018-07-20T02:07:03.141Z,67.60
2018-07-20T02:08:03.145Z,67.80
2018-07-20T02:09:03.121Z,67.80
2018-07-20T02:10:03.108Z,68.21
2018-07-20T02:11:03.142Z,68.61
2018-07-20T02:12:03.099Z,68.10
2018-07-20T02:13:03.110Z,68.51
2018-07-20T02:14:03.082Z,68.51
2018-07-20T02:15:03.068Z,68.64
2018-07-20T02:16:03.220Z,68.54
2018-07-20T02:17:03.069Z,68.71
2018-07-20T02:18:03.032Z,68.74
2018-07-20T02:19:03.029Z,68.64
2018-07-20T02:20:03.009Z,68.84
2018-07-20T02:21:02.991Z,69.24
2018-07-20T02:22:03.018Z,69.04
2018-07-20T02:23:02.973Z,68.84
2018-07-20T02:24:02.969Z,68.95
2018-07-20T02:25:02.946Z,68.95
2018-07-20T02:26:02.952Z,68.95
2018-07-20T02:27:02.951Z,69.15
2018-07-20T02:28:03.223Z,69.15
2018-07-20T02:29:02.915Z,69.11
2018-07-20T02:30:02.901Z,69.11
2018-07-20T02:31:02.909Z,68.91
2018-07-20T02:32:02.870Z,68.84
2018-07-20T02:33:02.892Z,68.91
2018-07-20T02:34:02.848Z,68.54
2018-07-20T02:35:02.841Z,68.30
2018-07-20T02:36:02.842Z,68.44
2018-07-20T02:37:02.821Z,68.44
2018-07-20T02:38:02.989Z,68.30
2018-07-20T02:39:02.809Z,68.74
2018-07-20T02:40:02.782Z,68.84
2018-07-20T02:41:02.775Z,68.84
2018-07-20T02:42:02.761Z,68.95
2018-07-20T02:43:02.754Z,69.35
2018-07-20T02:44:02.776Z,69.35
2018-07-20T02:45:02.732Z,69.35
2018-07-20T02:46:02.722Z,69.24
2018-07-20T02:47:02.706Z,69.45
2018-07-20T02:48:02.699Z,69.45
2018-07-20T02:49:02.736Z,69.04
2018-07-20T02:50:02.674Z,69.15
2018-07-20T02:51:02.665Z,69.35
2018-07-20T02:52:02.672Z,69.15
2018-07-20T02:53:02.651Z,69.24
2018-07-20T02:54:02.637Z,69.15
2018-07-20T02:55:02.656Z,69.15
2018-07-20T02:56:02.607Z,69.24
2018-07-20T02:57:02.624Z,69.24
2018-07-20T02:58:02.632Z,69.35
2018-07-20T02:59:02.588Z,69.15
2018-07-20T03:00:02.738Z,69.15
2018-07-20T03:01:02.557Z,69.15
2018-07-20T03:02:02.543Z,69.15
2018-07-20T03:03:02.539Z,69.35
2018-07-20T03:04:02.524Z,69.15
2018-07-20T03:05:02.719Z,69.15
2018-07-20T03:06:02.500Z,68.84
2018-07-20T03:07:02.488Z,68.95
2018-07-20T03:08:02.482Z,69.15
2018-07-20T03:09:02.487Z,68.84
2018-07-20T03:10:02.459Z,69.24
2018-07-20T03:11:02.503Z,69.35
2018-07-20T03:12:02.458Z,69.55
2018-07-20T03:13:02.425Z,69.04
2018-07-20T03:14:02.426Z,69.75
2018-07-20T03:15:02.405Z,69.55
2018-07-20T03:16:02.715Z,69.35
2018-07-20T03:17:02.389Z,69.24
2018-07-20T03:18:02.369Z,68.95
2018-07-20T03:19:02.359Z,68.24
2018-07-20T03:20:02.344Z,68.64
2018-07-20T03:21:02.384Z,68.33
2018-07-20T03:22:02.373Z,68.54
2018-07-20T03:23:02.315Z,68.95
2018-07-20T03:24:02.302Z,69.04
2018-07-20T03:25:02.291Z,69.24
2018-07-20T03:26:02.282Z,69.42
2018-07-20T03:27:02.341Z,69.42
2018-07-20T03:28:02.272Z,69.31
2018-07-20T03:29:02.250Z,69.15
2018-07-20T03:30:02.240Z,68.91
2018-07-20T03:31:02.268Z,68.74
2018-07-20T03:32:02.222Z,68.84
2018-07-20T03:33:02.247Z,68.54
2018-07-20T03:34:02.201Z,68.74
2018-07-20T03:35:02.215Z,68.33
2018-07-20T03:36:02.176Z,68.64
2018-07-20T03:37:02.177Z,69.35
2018-07-20T03:38:02.180Z,69.24
2018-07-20T03:39:02.146Z,69.04
2018-07-20T03:40:02.146Z,68.54
2018-07-20T03:41:02.120Z,68.95
2018-07-20T03:42:02.119Z,69.24
2018-07-20T03:43:02.273Z,69.04
2018-07-20T03:44:02.086Z,69.15
2018-07-20T03:45:02.090Z,69.45
2018-07-20T03:46:02.062Z,69.95
2018-07-20T03:47:02.051Z,69.95
2018-07-20T03:48:02.058Z,70.15
2018-07-20T03:49:02.129Z,69.35
2018-07-20T03:50:02.015Z,69.45
2018-07-20T03:51:02.009Z,69.04
2018-07-20T03:52:02.012Z,69.04
2018-07-20T03:53:01.995Z,69.55
2018-07-20T03:54:01.971Z,69.24
2018-07-20T03:55:01.993Z,69.15
2018-07-20T03:56:01.955Z,69.45
2018-07-20T03:57:01.943Z,70.06
2018-07-20T03:58:01.939Z,69.45
2018-07-20T03:59:01.915Z,69.04
2018-07-20T04:00:02.216Z,68.84
2018-07-20T04:01:01.893Z,69.35
2018-07-20T04:02:01.894Z,69.04
2018-07-20T04:03:01.877Z,69.35
2018-07-20T04:04:01.860Z,69.24
2018-07-20T04:05:01.905Z,68.54
2018-07-20T04:06:01.861Z,68.64
2018-07-20T04:07:01.828Z,68.95
2018-07-20T04:08:01.838Z,70.06
2018-07-20T04:09:01.825Z,69.52
2018-07-20T04:10:01.797Z,69.45
2018-07-20T04:11:01.875Z,69.65
2018-07-20T04:12:01.778Z,69.65
2018-07-20T04:13:01.768Z,69.55
2018-07-20T04:14:01.752Z,70.36
2018-07-20T04:15:01.750Z,70.36
2018-07-20T04:16:01.883Z,69.75
2018-07-20T04:17:01.720Z,70.36
2018-07-20T04:18:01.715Z,70.36
2018-07-20T04:19:01.712Z,70.86
2018-07-20T04:20:01.694Z,71.10
2018-07-20T04:21:01.682Z,71.00
2018-07-20T04:22:01.698Z,70.46
2018-07-20T04:23:01.661Z,70.76
2018-07-20T04:24:01.640Z,70.66
2018-07-20T04:25:01.658Z,70.96
2018-07-20T04:26:01.623Z,71.06
2018-07-20T04:27:01.656Z,71.17
2018-07-20T04:28:01.601Z,71.17
2018-07-20T04:29:01.590Z,70.46
2018-07-20T04:30:01.578Z,70.96
2018-07-20T04:31:01.580Z,70.26
2018-07-20T04:32:01.725Z,70.15
2018-07-20T04:33:01.543Z,70.36
2018-07-20T04:34:01.535Z,70.36
2018-07-20T04:35:01.527Z,70.76
2018-07-20T04:36:01.515Z,70.12
2018-07-20T04:37:01.499Z,70.53
2018-07-20T04:38:01.524Z,70.22
2018-07-20T04:39:01.481Z,70.12
2018-07-20T04:40:01.466Z,70.73
2018-07-20T04:41:01.483Z,70.12
2018-07-20T04:42:01.451Z,70.02
2018-07-20T04:43:01.563Z,70.32
2018-07-20T04:44:01.438Z,70.22
2018-07-20T04:45:01.410Z,70.32
2018-07-20T04:46:01.407Z,70.09
2018-07-20T04:47:01.398Z,70.49
2018-07-20T04:48:01.379Z,70.19
2018-07-20T04:49:01.752Z,69.59
2018-07-20T04:50:01.493Z,69.89
2018-07-20T04:51:01.347Z,69.48
2018-07-20T04:52:01.342Z,69.38
2018-07-20T04:53:01.364Z,69.59
2018-07-20T04:54:01.350Z,69.28
2018-07-20T04:55:01.305Z,69.18
2018-07-20T04:56:01.309Z,68.95
2018-07-20T04:57:01.281Z,68.65
2018-07-20T04:58:01.283Z,68.74
2018-07-20T04:59:01.633Z,68.44
2018-07-20T05:00:01.249Z,68.54
2018-07-20T05:01:01.249Z,68.34
2018-07-20T05:02:01.251Z,68.54
2018-07-20T05:03:01.220Z,68.44
2018-07-20T05:04:01.208Z,68.44
2018-07-20T05:05:01.231Z,68.04
2018-07-20T05:06:01.291Z,68.14
2018-07-20T05:07:01.181Z,68.14
2018-07-20T05:08:01.193Z,67.84
2018-07-20T05:09:01.157Z,67.94
2018-07-20T05:10:01.207Z,67.84
2018-07-20T05:11:01.129Z,67.20
2018-07-20T05:12:01.120Z,67.50
2018-07-20T05:13:01.113Z,67.60
2018-07-20T05:14:01.117Z,67.30
2018-07-20T05:15:01.106Z,67.50
2018-07-20T05:16:01.140Z,67.20
2018-07-20T05:17:01.099Z,67.20
2018-07-20T05:18:01.072Z,67.00
2018-07-20T05:19:01.049Z,66.70
2018-07-20T05:20:01.089Z,66.90
2018-07-20T05:21:01.064Z,67.23
2018-07-20T05:22:01.029Z,67.23
2018-07-20T05:23:01.010Z,67.40
2018-07-20T05:24:01.013Z,67.20
2018-07-20T05:25:00.988Z,66.30
2018-07-20T05:26:01.011Z,66.30
2018-07-20T05:27:01.005Z,66.47
2018-07-20T05:28:00.996Z,66.27
2018-07-20T05:29:00.945Z,66.27
2018-07-20T05:30:00.929Z,66.27
2018-07-20T05:31:00.997Z,66.16
2018-07-20T05:32:00.947Z,65.12
2018-07-20T05:33:00.895Z,64.72
2018-07-20T05:34:00.887Z,64.52
2018-07-20T05:35:01.004Z,64.42
2018-07-20T05:36:00.863Z,64.02
2018-07-20T05:37:00.856Z,62.98
2018-07-20T05:38:00.907Z,62.78
2018-07-20T05:39:00.833Z,62.88
2018-07-20T05:40:00.829Z,63.15
2018-07-20T05:41:00.807Z,63.35
2018-07-20T05:42:00.798Z,63.35
2018-07-20T05:43:00.841Z,62.85
2018-07-20T05:44:00.810Z,61.61
2018-07-20T05:45:00.772Z,62.35
2018-07-20T05:46:00.767Z,61.41
2018-07-20T05:47:00.762Z,61.31
2018-07-20T05:48:00.733Z,61.31
2018-07-20T05:49:00.752Z,59.91
2018-07-20T05:50:00.718Z,60.51
2018-07-20T05:51:00.696Z,59.78
2018-07-20T05:52:00.709Z,60.71
2018-07-20T05:53:00.673Z,60.41
2018-07-20T05:54:00.708Z,59.80
2018-07-20T05:55:00.673Z,59.60
2018-07-20T05:56:00.647Z,59.88
2018-07-20T05:57:00.701Z,59.38
2018-07-20T05:58:00.627Z,60.18
2018-07-20T05:59:00.655Z,59.47
2018-07-20T06:00:00.602Z,59.95
2018-07-20T06:01:00.591Z,59.05
2018-07-20T06:02:00.587Z,58.62
2018-07-20T06:03:00.562Z,58.92
2018-07-20T06:04:00.581Z,58.11
2018-07-20T06:05:00.576Z,58.31
2018-07-20T06:06:00.538Z,57.18
2018-07-20T06:07:00.576Z,57.11
2018-07-20T06:08:00.510Z,56.88
2018-07-20T06:09:00.509Z,56.48
2018-07-20T06:10:00.536Z,56.08
2018-07-20T06:11:00.501Z,55.98
2018-07-20T06:12:00.483Z,56.35
2018-07-20T06:13:00.474Z,56.35
2018-07-20T06:14:00.448Z,55.85
2018-07-20T06:15:00.432Z,56.33
2018-07-20T06:16:00.460Z,56.13
2018-07-20T06:17:00.415Z,56.23
2018-07-20T06:18:00.401Z,56.13
2018-07-20T06:19:00.401Z,55.60
2018-07-20T06:20:00.375Z,54.70
2018-07-20T06:21:00.408Z,55.00
2018-07-20T06:22:00.361Z,54.70
2018-07-20T06:23:00.376Z,54.70
2018-07-20T06:24:00.357Z,54.47
2018-07-20T06:25:00.327Z,53.77
2018-07-20T06:26:00.383Z,52.57
2018-07-20T06:27:00.305Z,53.17
2018-07-20T06:28:00.301Z,52.64
2018-07-20T06:29:00.291Z,52.72
2018-07-20T06:30:00.272Z,52.24
2018-07-20T06:31:00.260Z,52.12
2018-07-20T06:32:00.309Z,51.32
2018-07-20T06:33:00.237Z,52.34
2018-07-20T06:34:00.237Z,52.64
2018-07-20T06:35:00.230Z,53.05
2018-07-20T06:36:00.218Z,52.22
2018-07-20T06:37:00.195Z,51.72
2018-07-20T06:38:00.227Z,51.92
2018-07-20T06:39:00.172Z,52.12
2018-07-20T06:40:00.166Z,52.62
2018-07-20T06:41:00.170Z,52.62
2018-07-20T06:42:00.186Z,52.32
2018-07-20T06:43:00.127Z,52.22
2018-07-20T06:44:00.128Z,52.42
2018-07-20T06:45:00.108Z,52.42
2018-07-20T06:46:00.110Z,51.59
2018-07-20T06:47:00.129Z,51.20
2018-07-20T06:48:00.114Z,51.59
2018-07-20T06:49:00.067Z,50.59
2018-07-20T06:50:00.053Z,50.49
2018-07-20T06:51:00.045Z,50.22
2018-07-20T06:52:00.057Z,50.49
2018-07-20T06:53:00.054Z,51.50
2018-07-20T06:54:00.015Z,50.89
2018-07-20T06:54:59.998Z,51.39
2018-07-20T06:56:00.009Z,51.59
2018-07-20T06:56:59.978Z,51.37
2018-07-20T06:58:00.036Z,51.17
2018-07-20T06:58:59.953Z,51.34
2018-07-20T06:59:59.962Z,50.45
2018-07-20T07:00:59.952Z,50.24
2018-07-20T07:01:59.923Z,49.65
2018-07-20T07:02:59.924Z,49.55
2018-07-20T07:03:59.937Z,50.52
2018-07-20T07:04:59.894Z,50.02
2018-07-20T07:05:59.890Z,49.82
2018-07-20T07:07:00.059Z,50.02
2018-07-20T07:07:59.861Z,50.02
2018-07-20T07:08:59.995Z,49.80
2018-07-20T07:09:59.844Z,50.00
2018-07-20T07:10:59.871Z,49.60
2018-07-20T07:11:59.841Z,49.68
2018-07-20T07:12:59.819Z,49.18
2018-07-20T07:13:59.796Z,49.08
2018-07-20T07:14:59.929Z,49.18
2018-07-20T07:15:59.796Z,48.78
2018-07-20T07:16:59.764Z,48.78
2018-07-20T07:17:59.754Z,48.80
2018-07-20T07:18:59.747Z,49.08
2018-07-20T07:19:59.777Z,49.18
2018-07-20T07:20:59.722Z,48.78
2018-07-20T07:21:59.713Z,48.35
2018-07-20T07:22:59.703Z,48.65
2018-07-20T07:23:59.689Z,45.96
2018-07-20T07:24:59.861Z,46.96
2018-07-20T07:25:59.789Z,45.76
2018-07-20T07:26:59.678Z,45.64
2018-07-20T07:27:59.650Z,46.24
2018-07-20T07:28:59.635Z,45.62
2018-07-20T07:29:59.630Z,45.90
2018-07-20T07:30:59.742Z,46.20
2018-07-20T07:31:59.607Z,45.37
2018-07-20T07:32:59.598Z,45.78
2018-07-20T07:33:59.586Z,44.96
2018-07-20T07:34:59.595Z,44.26
2018-07-20T07:35:59.745Z,44.26
2018-07-20T07:36:59.548Z,44.44
2018-07-20T07:37:59.545Z,43.84
2018-07-20T07:38:59.537Z,43.42
2018-07-20T07:39:59.521Z,43.72
2018-07-20T07:40:59.509Z,43.42
2018-07-20T07:41:59.564Z,43.20
2018-07-20T07:42:59.503Z,43.28
2018-07-20T07:43:59.482Z,42.66
2018-07-20T07:44:59.474Z,41.66
2018-07-20T07:45:59.454Z,41.33
2018-07-20T07:46:59.494Z,41.46
2018-07-20T07:47:59.433Z,41.46
2018-07-20T07:48:59.424Z,41.95
2018-07-20T07:49:59.416Z,42.33
2018-07-20T07:50:59.400Z,42.25
2018-07-20T07:51:59.394Z,41.63
2018-07-20T07:52:59.463Z,41.53
2018-07-20T07:53:59.370Z,41.22
2018-07-20T07:54:59.370Z,40.50
2018-07-20T07:55:59.355Z,39.50
2018-07-20T07:56:59.336Z,38.21
2018-07-20T07:57:59.365Z,39.00
2018-07-20T07:58:59.443Z,38.51
2018-07-20T07:59:59.301Z,38.29
2018-07-20T08:00:59.307Z,39.28
2018-07-20T08:01:59.303Z,38.47
2018-07-20T08:02:59.320Z,37.68
2018-07-20T08:03:59.285Z,37.58
2018-07-20T08:04:59.255Z,36.88
2018-07-20T08:05:59.245Z,37.08
2018-07-20T08:06:59.251Z,37.66
2018-07-20T08:07:59.223Z,37.28
2018-07-20T08:08:59.247Z,37.76
2018-07-20T08:09:59.447Z,37.56
2018-07-20T08:10:59.187Z,38.45
2018-07-20T08:11:59.194Z,38.25
2018-07-20T08:12:59.186Z,37.94
2018-07-20T08:13:59.279Z,37.94
2018-07-20T08:14:59.153Z,36.95
2018-07-20T08:15:59.142Z,37.23
2018-07-20T08:16:59.143Z,37.62
2018-07-20T08:17:59.115Z,37.01
2018-07-20T08:18:59.391Z,37.32
2018-07-20T08:19:59.206Z,36.70
2018-07-20T08:20:59.094Z,36.12
2018-07-20T08:21:59.079Z,36.44
2018-07-20T08:22:59.099Z,37.24
2018-07-20T08:23:59.053Z,36.67
2018-07-20T08:24:59.100Z,37.07
2018-07-20T08:25:59.036Z,37.48
2018-07-20T08:26:59.023Z,37.48
2018-07-20T08:27:59.016Z,36.93
2018-07-20T08:28:59.005Z,36.68
2018-07-20T08:29:58.995Z,34.75
2018-07-20T08:30:59.020Z,33.64
2018-07-20T08:31:58.981Z,32.71
2018-07-20T08:32:58.965Z,33.28
2018-07-20T08:33:58.955Z,31.68
2018-07-20T08:34:58.957Z,30.96
2018-07-20T08:35:59.127Z,30.25
2018-07-20T08:36:58.926Z,30.51
2018-07-20T08:37:58.956Z,29.94
2018-07-20T08:38:58.904Z,30.74
2018-07-20T08:39:58.900Z,30.33
2018-07-20T08:40:58.887Z,30.00
2018-07-20T08:41:58.912Z,28.91
2018-07-20T08:42:58.862Z,27.44
2018-07-20T08:43:58.861Z,28.00
2018-07-20T08:44:58.845Z,27.86
2018-07-20T08:45:58.838Z,26.29
2018-07-20T08:46:58.876Z,26.58
2018-07-20T08:47:58.831Z,26.70
2018-07-20T08:48:58.802Z,26.81
2018-07-20T08:49:58.887Z,25.99
2018-07-20T08:50:58.786Z,26.08
2018-07-20T08:51:58.825Z,25.57
2018-07-20T08:52:58.770Z,25.75
2018-07-20T08:53:58.810Z,25.27
2018-07-20T08:54:58.762Z,24.88
2018-07-20T08:55:58.764Z,25.65
2018-07-20T08:56:58.729Z,24.96
2018-07-20T08:57:58.767Z,24.17
2018-07-20T08:58:58.739Z,24.34
2018-07-20T08:59:58.708Z,24.05
2018-07-20T09:00:58.693Z,23.68
2018-07-20T09:01:58.756Z,24.66
2018-07-20T09:02:58.871Z,24.95
2018-07-20T09:03:58.661Z,23.60
2018-07-20T09:04:58.659Z,24.89
2018-07-20T09:05:58.660Z,26.12
2018-07-20T09:06:58.672Z,25.81
2018-07-20T09:07:58.691Z,27.09
2018-07-20T09:08:58.712Z,25.52
2018-07-20T09:09:58.627Z,25.19
2018-07-20T09:10:58.612Z,25.57
2018-07-20T09:11:58.603Z,25.58
2018-07-20T09:12:58.581Z,25.27
2018-07-20T09:13:58.759Z,24.78
2018-07-20T09:14:58.566Z,24.35
2018-07-20T09:15:58.583Z,22.95
2018-07-20T09:16:58.572Z,22.26
2018-07-20T09:17:58.548Z,22.42
2018-07-20T09:18:58.678Z,21.34
2018-07-20T09:19:58.571Z,21.03
2018-07-20T09:20:58.570Z,20.35
2018-07-20T09:21:58.518Z,21.21
2018-07-20T09:22:58.509Z,20.08
2018-07-20T09:23:58.497Z,20.66
2018-07-20T09:24:58.538Z,20.86
2018-07-20T09:25:58.470Z,20.46
2018-07-20T09:26:58.463Z,20.54
2018-07-20T09:27:58.455Z,21.01
2018-07-20T09:28:58.463Z,20.05
2018-07-20T09:29:58.475Z,19.18
2018-07-20T09:30:58.420Z,20.14
2018-07-20T09:31:58.430Z,19.17
2018-07-20T09:32:58.411Z,18.86
2018-07-20T09:33:58.404Z,18.85
2018-07-20T09:34:58.399Z,18.93
2018-07-20T09:35:58.416Z,18.73
2018-07-20T09:36:58.369Z,19.20
2018-07-20T09:37:58.369Z,18.71
2018-07-20T09:38:58.348Z,18.24
2018-07-20T09:39:58.392Z,19.28
2018-07-20T09:40:58.485Z,17.46
2018-07-20T09:41:58.328Z,18.63
2018-07-20T09:42:58.321Z,18.63
2018-07-20T09:43:58.313Z,17.86
2018-07-20T09:44:58.312Z,16.99
2018-07-20T09:45:58.303Z,16.83
2018-07-20T09:46:58.422Z,18.20
2018-07-20T09:47:58.283Z,18.29
2018-07-20T09:48:58.376Z,17.99
2018-07-20T09:49:58.282Z,18.10
2018-07-20T09:50:58.253Z,18.70
2018-07-20T09:51:58.279Z,18.88
2018-07-20T09:52:58.239Z,18.68
2018-07-20T09:53:58.238Z,18.59
2018-07-20T09:54:58.416Z,18.48
2018-07-20T09:55:58.223Z,17.97
2018-07-20T09:56:58.285Z,18.24
2018-07-20T09:57:58.217Z,17.25
2018-07-20T09:58:58.210Z,16.18
2018-07-20T09:59:58.188Z,16.83
2018-07-20T10:00:58.227Z,16.63
2018-07-20T10:01:58.174Z,16.82
2018-07-20T10:02:58.381Z,16.61
2018-07-20T10:03:58.158Z,15.36
2018-07-20T10:04:58.163Z,16.20
2018-07-20T10:05:58.144Z,16.02
2018-07-20T10:06:58.147Z,16.24
2018-07-20T10:07:58.133Z,15.80
2018-07-20T10:08:58.294Z,17.07
2018-07-20T10:09:58.130Z,17.25
2018-07-20T10:10:58.100Z,16.76
2018-07-20T10:11:58.098Z,16.76
2018-07-20T10:12:58.108Z,16.66
2018-07-20T10:13:58.110Z,17.46
2018-07-20T10:14:58.074Z,17.84
2018-07-20T10:15:58.114Z,18.14
2018-07-20T10:16:58.063Z,17.64
2018-07-20T10:17:58.053Z,17.43
2018-07-20T10:18:58.152Z,16.64
2018-07-20T10:19:58.039Z,16.63
2018-07-20T10:20:58.050Z,16.16
2018-07-20T10:21:58.032Z,15.85
2018-07-20T10:22:58.016Z,16.14
2018-07-20T10:23:58.013Z,15.94
2018-07-20T10:24:58.034Z,16.03
2018-07-20T10:25:58.000Z,16.21
2018-07-20T10:26:58.015Z,16.22
2018-07-20T10:27:57.985Z,16.53
2018-07-20T10:28:57.975Z,16.64
2018-07-20T10:29:58.289Z,16.74
2018-07-20T10:30:57.965Z,16.04
2018-07-20T10:31:57.980Z,15.95
2018-07-20T10:32:57.960Z,15.86
2018-07-20T10:33:57.957Z,16.06
2018-07-20T10:34:57.932Z,16.04
2018-07-20T10:35:57.967Z,15.75
2018-07-20T10:36:57.930Z,15.66
2018-07-20T10:37:57.910Z,15.74
2018-07-20T10:38:57.915Z,16.50
2018-07-20T10:39:57.899Z,15.43
2018-07-20T10:40:57.929Z,14.86
2018-07-20T10:41:57.881Z,14.65
2018-07-20T10:42:57.915Z,14.54
2018-07-20T10:43:57.874Z,14.83
2018-07-20T10:44:57.866Z,15.03
2018-07-20T10:45:58.036Z,15.53
2018-07-20T10:46:57.907Z,15.26
2018-07-20T10:47:57.855Z,15.34
2018-07-20T10:48:57.834Z,15.53
2018-07-20T10:49:57.829Z,15.42
2018-07-20T10:50:57.837Z,15.22
2018-07-20T10:51:57.898Z,14.96
2018-07-20T10:52:57.878Z,15.92
2018-07-20T10:53:57.815Z,15.46
2018-07-20T10:54:57.800Z,15.73
2018-07-20T10:55:57.799Z,15.81
2018-07-20T10:56:57.836Z,15.32
2018-07-20T10:57:57.778Z,14.84
2018-07-20T10:58:57.783Z,14.66
2018-07-20T10:59:57.771Z,15.45
2018-07-20T11:00:57.760Z,15.75
2018-07-20T11:01:57.768Z,14.98
2018-07-20T11:02:57.883Z,15.45
2018-07-20T11:03:57.745Z,15.54
2018-07-20T11:04:57.739Z,14.98
2018-07-20T11:05:57.729Z,15.77
2018-07-20T11:06:57.728Z,15.79
2018-07-20T11:07:57.758Z,16.55
2018-07-20T11:08:57.845Z,16.47
2018-07-20T11:09:57.706Z,17.32
2018-07-20T11:10:57.713Z,16.47
2018-07-20T11:11:57.690Z,16.65
2018-07-20T11:12:57.685Z,15.88
2018-07-20T11:13:57.718Z,15.89
2018-07-20T11:14:57.679Z,16.39
2018-07-20T11:15:57.669Z,16.76
2018-07-20T11:16:57.659Z,16.56
2018-07-20T11:17:57.661Z,16.55
2018-07-20T11:18:57.691Z,15.59
2018-07-20T11:19:57.647Z,16.25
2018-07-20T11:20:57.632Z,15.75
2018-07-20T11:21:57.634Z,15.84
2018-07-20T11:22:57.625Z,15.54
2018-07-20T11:23:57.647Z,14.96
2018-07-20T11:24:57.613Z,15.42
2018-07-20T11:25:57.619Z,14.93
2018-07-20T11:26:57.595Z,14.64
2018-07-20T11:27:57.595Z,14.82
2018-07-20T11:28:57.845Z,14.82
2018-07-20T11:29:57.583Z,15.02
2018-07-20T11:30:57.573Z,15.43
2018-07-20T11:31:57.569Z,14.85
2018-07-20T11:32:57.567Z,15.53
2018-07-20T11:33:57.563Z,15.24
2018-07-20T11:34:57.592Z,14.65
2018-07-20T11:35:57.540Z,14.65
2018-07-20T11:36:57.541Z,15.02
2018-07-20T11:37:57.536Z,13.97
2018-07-20T11:38:57.524Z,14.54
2018-07-20T11:39:57.514Z,14.36
2018-07-20T11:40:57.559Z,14.07
2018-07-20T11:41:57.578Z,14.28
2018-07-20T11:42:57.502Z,14.66
2018-07-20T11:43:57.489Z,14.86
2018-07-20T11:44:57.490Z,14.86
2018-07-20T11:45:57.521Z,14.76
2018-07-20T11:46:57.472Z,15.53
2018-07-20T11:47:57.473Z,15.26
2018-07-20T11:48:57.460Z,16.24
2018-07-20T11:49:57.451Z,15.69
2018-07-20T11:50:57.636Z,16.63
2018-07-20T11:51:57.441Z,16.45
2018-07-20T11:52:57.436Z,17.14
2018-07-20T11:53:57.438Z,17.73
2018-07-20T11:54:57.423Z,16.27
2018-07-20T11:55:57.506Z,16.66
2018-07-20T11:56:57.443Z,17.35
2018-07-20T11:57:57.398Z,17.78
2018-07-20T11:58:57.395Z,18.58
2018-07-20T11:59:57.414Z,19.57
2018-07-20T12:00:57.427Z,19.79
2018-07-20T12:01:57.826Z,20.10
2018-07-20T12:02:57.373Z,20.21
2018-07-20T12:03:57.370Z,20.10
2018-07-20T12:04:57.358Z,20.01
2018-07-20T12:05:57.387Z,20.00
2018-07-20T12:06:57.437Z,19.20
2018-07-20T12:07:57.409Z,18.68
2018-07-20T12:08:57.411Z,18.38
2018-07-20T12:09:57.314Z,18.08
2018-07-20T12:10:57.321Z,18.16
2018-07-20T12:11:57.302Z,17.65
2018-07-20T12:12:57.496Z,16.96
2018-07-20T12:13:57.284Z,17.35
2018-07-20T12:14:57.312Z,18.24
2018-07-20T12:15:57.299Z,17.55
2018-07-20T12:16:57.269Z,17.45
2018-07-20T12:17:57.258Z,17.06
2018-07-20T12:18:57.296Z,16.66
2018-07-20T12:19:57.243Z,16.86
2018-07-20T12:20:57.239Z,16.96
2018-07-20T12:21:57.233Z,16.85
2018-07-20T12:22:57.282Z,17.22
2018-07-20T12:23:57.361Z,17.82
2018-07-20T12:24:57.218Z,18.31
2018-07-20T12:25:57.194Z,18.12
2018-07-20T12:26:57.199Z,17.33
2018-07-20T12:27:57.203Z,16.85
2018-07-20T12:28:57.186Z,16.66
2018-07-20T12:29:57.196Z,17.71
2018-07-20T12:30:57.157Z,17.33
2018-07-20T12:31:57.158Z,17.74
2018-07-20T12:32:57.179Z,18.84
2018-07-20T12:33:57.160Z,19.20
2018-07-20T12:34:57.172Z,21.11
2018-07-20T12:35:57.163Z,23.03
2018-07-20T12:36:57.112Z,23.94
2018-07-20T12:37:57.110Z,24.35
2018-07-20T12:38:57.095Z,24.44
2018-07-20T12:39:57.133Z,24.24
2018-07-20T12:40:57.095Z,24.63
2018-07-20T12:41:57.069Z,24.24
2018-07-20T12:42:57.066Z,24.94
2018-07-20T12:43:57.056Z,24.55
2018-07-20T12:44:57.048Z,25.43
2018-07-20T12:45:57.071Z,25.24
2018-07-20T12:46:57.031Z,24.94
2018-07-20T12:47:57.027Z,24.44
2018-07-20T12:48:57.029Z,24.13
2018-07-20T12:49:57.001Z,24.52
2018-07-20T12:50:57.131Z,23.55
2018-07-20T12:51:56.985Z,24.62